Time;durP1;ratioP1;P1;durP2;ratioP2;P2;SDS_P1;SDS_P2;PMS_P1;PMS_P2;Temp;Humidity;BMP_temperature;BMP_pressure;BME280_temperature;BME280_humidity;BME280_pressure;Samples;Min_cycle;Max_cycle;Signal;HPM_P1;HPM_P2
2023/01/07 00:01:45;;;;;;;6.20;3.83;;;;;;;-5.23;62.79;101067.78;1671199;83;21109;-68
2023/01/07 00:04:14;;;;;;;7.87;4.00;;;;;;;-5.23;62.83;101081.95;1715714;83;21921;-68
2023/01/07 00:06:43;;;;;;;6.60;3.72;;;;;;;-5.23;62.77;101087.09;1695661;83;21186;-68
2023/01/07 00:09:15;;;;;;;6.22;3.98;;;;;;;-5.25;62.75;101089.26;1689482;83;20995;-69
2023/01/07 00:11:42;;;;;;;7.03;4.25;;;;;;;-5.26;62.74;101099.14;1658517;85;24583;-68
2023/01/07 00:14:12;;;;;;;7.40;3.90;;;;;;;-5.27;62.68;101094.85;1710086;83;20995;-68
2023/01/07 00:16:42;;;;;;;5.83;3.85;;;;;;;-5.30;62.64;101091.86;1695831;84;22018;-68
2023/01/07 00:19:16;;;;;;;7.47;4.50;;;;;;;-5.32;62.63;101106.88;1705848;82;21089;-68
2023/01/07 00:21:43;;;;;;;7.53;4.20;;;;;;;-5.37;62.61;101106.90;1710409;83;20967;-69
2023/01/07 00:24:11;;;;;;;6.62;4.08;;;;;;;-5.36;62.80;101107.32;1697995;84;21059;-69
2023/01/07 00:26:40;;;;;;;7.15;4.15;;;;;;;-5.35;62.84;101113.33;1707149;83;21035;-69
2023/01/07 00:29:08;;;;;;;10.82;4.00;;;;;;;-5.35;62.85;101122.34;1697769;84;21923;-70
2023/01/07 00:31:37;;;;;;;6.47;3.90;;;;;;;-5.35;62.87;101127.05;1704214;83;21089;-69
2023/01/07 00:36:42;;;;;;;10.00;3.40;;;;;;;-5.37;62.81;101132.64;1722257;82;21043;-68
2023/01/07 00:39:18;;;;;;;6.97;3.83;;;;;;;-5.37;62.89;101127.49;1699668;83;21003;-69
2023/01/07 00:44:33;;;;;;;7.75;4.15;;;;;;;-5.45;62.60;101127.94;1720956;82;21035;-70
2023/01/07 00:46:59;;;;;;;7.53;4.08;;;;;;;-5.51;62.44;101126.64;1723866;83;21000;-67
2023/01/07 00:49:28;;;;;;;5.22;3.65;;;;;;;-5.54;62.45;101129.23;1709355;82;21101;-68
2023/01/07 00:51:54;;;;;;;7.67;4.37;;;;;;;-5.56;62.52;101129.67;1698148;83;21547;-68
2023/01/07 00:54:22;;;;;;;6.55;4.08;;;;;;;-5.55;62.57;101132.67;1708252;83;22531;-69
2023/01/07 00:56:51;;;;;;;7.12;4.35;;;;;;;-5.57;62.40;101128.81;1704932;83;20968;-69
2023/01/07 00:59:18;;;;;;;7.42;3.92;;;;;;;-5.59;62.45;101130.97;1721054;83;21114;-68
2023/01/07 01:01:46;;;;;;;5.67;3.50;;;;;;;-5.59;62.57;101132.27;1704631;82;21052;-69
2023/01/07 01:04:14;;;;;;;7.62;4.25;;;;;;;-5.59;62.63;101123.25;1723523;82;21011;-69
2023/01/07 01:06:41;;;;;;;6.55;4.25;;;;;;;-5.59;62.52;101120.68;1726935;82;21945;-70
2023/01/07 01:09:09;;;;;;;7.30;3.95;;;;;;;-5.59;62.56;101125.40;1713700;83;21062;-69
2023/01/07 01:11:35;;;;;;;7.22;3.90;;;;;;;-5.58;62.70;101125.82;1699360;83;21509;-69
2023/01/07 01:14:03;;;;;;;6.15;4.37;;;;;;;-5.58;62.73;101121.96;1701247;83;21011;-69
2023/01/07 01:16:30;;;;;;;7.20;4.10;;;;;;;-5.59;62.65;101125.83;1714977;82;21045;-69
2023/01/07 01:18:57;;;;;;;5.87;3.50;;;;;;;-5.59;62.71;101122.82;1711768;82;21928;-69
2023/01/07 01:21:24;;;;;;;7.10;3.83;;;;;;;-5.59;62.68;101120.68;1714928;82;21409;-68
2023/01/07 01:23:52;;;;;;;6.03;4.28;;;;;;;-5.63;62.48;101124.95;1706289;84;21035;-69
2023/01/07 01:26:18;;;;;;;6.25;4.10;;;;;;;-5.64;62.55;101139.11;1706229;84;21011;-68
2023/01/07 01:28:45;;;;;;;6.45;4.08;;;;;;;-5.63;62.66;101139.11;1684956;82;20948;-68
2023/01/07 01:31:15;;;;;;;7.22;4.22;;;;;;;-5.63;62.75;101128.81;1720854;82;21897;-70
2023/01/07 01:33:46;;;;;;;7.47;4.25;;;;;;;-5.63;62.79;101131.82;1734647;82;20957;-70
2023/01/07 01:36:13;;;;;;;7.37;4.05;;;;;;;-5.63;62.93;101137.82;1731051;82;21569;-69
2023/01/07 01:38:40;;;;;;;8.28;4.45;;;;;;;-5.62;63.01;101131.81;1707913;82;21083;-70
2023/01/07 01:41:06;;;;;;;6.75;4.00;;;;;;;-5.61;62.98;101141.24;1712148;82;20949;-69
2023/01/07 01:43:38;;;;;;;6.97;4.33;;;;;;;-5.59;63.05;101148.99;1733405;82;22726;-68
2023/01/07 01:46:40;;;;;;;7.25;4.17;;;;;;;-5.57;63.14;101143.41;1684699;84;21024;-68
2023/01/07 01:49:16;;;;;;;6.05;4.00;;;;;;;-5.55;63.07;101145.54;1725512;82;20968;-68
2023/01/07 01:51:47;;;;;;;7.15;3.92;;;;;;;-5.55;63.04;101144.25;1707199;82;21465;-68
2023/01/07 01:54:14;;;;;;;8.70;4.08;;;;;;;-5.58;62.98;101145.13;1707370;82;20967;-68
2023/01/07 01:56:46;;;;;;;5.78;3.83;;;;;;;-5.59;63.02;101149.84;1705933;84;21854;-69
2023/01/07 01:59:21;;;;;;;6.87;4.20;;;;;;;-5.59;63.10;101148.99;1681523;84;21092;-69
2023/01/07 02:01:47;;;;;;;5.83;3.90;;;;;;;-5.59;63.10;101138.70;1704250;82;21106;-68
2023/01/07 02:04:19;;;;;;;6.15;3.92;;;;;;;-5.62;62.92;101148.54;1711358;82;21012;-68
2023/01/07 02:07:08;;;;;;;6.65;4.10;;;;;;;-5.63;62.88;101154.55;1706241;83;20999;-69
2023/01/07 02:09:35;;;;;;;6.80;3.62;;;;;;;-5.63;62.88;101151.97;1688546;84;21781;-68
2023/01/07 02:12:43;;;;;;;6.53;4.08;;;;;;;-5.63;62.92;101157.12;1698325;83;21246;-68
2023/01/07 02:15:18;;;;;;;7.12;4.15;;;;;;;-5.61;62.93;101161.83;1685408;83;21025;-68
2023/01/07 02:18:34;;;;;;;8.63;4.20;;;;;;;-5.62;62.95;101160.55;1688928;84;21012;-68
2023/01/07 02:21:25;;;;;;;8.33;4.28;;;;;;;-5.63;62.85;101160.13;1683740;84;21083;-68
2023/01/07 02:24:22;;;;;;;9.28;6.20;;;;;;;-5.68;62.85;101157.57;1695326;82;22782;-69
2023/01/07 02:27:36;;;;;;;9.38;5.30;;;;;;;-5.68;62.84;101160.58;1713768;83;21531;-68
2023/01/07 02:30:24;;;;;;;8.78;5.33;;;;;;;-5.74;62.56;101156.28;1712449;82;21007;-69
2023/01/07 02:33:06;;;;;;;6.90;4.40;;;;;;;-5.78;62.65;101156.72;1713689;83;21006;-68
2023/01/07 02:36:15;;;;;;;14.43;9.08;;;;;;;-5.79;62.64;101161.44;1712386;83;21435;-68
2023/01/07 02:39:13;;;;;;;11.95;6.75;;;;;;;-5.86;62.57;101162.28;1694591;83;21961;-67
2023/01/07 02:42:01;;;;;;;9.60;5.85;;;;;;;-5.87;62.71;101170.87;1702648;83;21056;-69
2023/01/07 02:44:37;;;;;;;7.78;4.55;;;;;;;-5.88;62.80;101164.44;1672992;84;21071;-69
2023/01/07 02:47:10;;;;;;;8.08;5.50;;;;;;;-5.89;62.53;101166.55;1688311;84;21084;-68
2023/01/07 02:49:37;;;;;;;9.90;6.00;;;;;;;-5.97;62.54;101164.47;1671705;85;21017;-69
2023/01/07 02:52:21;;;;;;;6.87;4.78;;;;;;;-5.97;62.72;101167.89;1683109;84;21887;-69
2023/01/07 02:55:08;;;;;;;7.00;4.33;;;;;;;-5.96;62.80;101170.03;1695049;82;20984;-69
2023/01/07 02:58:17;;;;;;;8.48;4.40;;;;;;;-5.93;62.97;101164.45;1708973;84;20959;-68
2023/01/07 03:01:24;;;;;;;5.85;4.00;;;;;;;-5.88;62.98;101171.72;1700234;83;21040;-68
2023/01/07 03:04:24;;;;;;;6.22;3.45;;;;;;;-5.86;62.88;101172.58;1690309;83;20960;-69
2023/01/07 03:07:17;;;;;;;6.40;3.40;;;;;;;-5.84;62.91;101177.29;1707476;84;21807;-68
2023/01/07 03:10:07;;;;;;;8.73;4.83;;;;;;;-5.83;62.84;101179.00;1727206;83;20952;-68
2023/01/07 03:12:59;;;;;;;7.67;4.70;;;;;;;-5.88;62.80;101183.30;1682060;83;20995;-68
2023/01/07 03:15:32;;;;;;;7.25;4.33;;;;;;;-5.93;62.87;101174.73;1698509;83;21150;-68
2023/01/07 03:18:04;;;;;;;5.87;3.60;;;;;;;-5.89;63.12;101174.27;1668397;84;21027;-68
2023/01/07 03:20:33;;;;;;;6.90;4.05;;;;;;;-5.88;63.12;101176.87;1673876;84;22562;-68
2023/01/07 03:22:59;;;;;;;7.17;4.15;;;;;;;-5.92;62.99;101188.03;1686142;84;21015;-68
2023/01/07 03:25:30;;;;;;;7.83;4.12;;;;;;;-5.93;63.01;101179.88;1673506;84;20976;-69
2023/01/07 03:27:57;;;;;;;10.10;6.00;;;;;;;-5.92;63.05;101179.45;1687218;84;21091;-68
2023/01/07 03:30:23;;;;;;;16.02;8.68;;;;;;;-5.97;62.85;101182.04;1695103;84;20960;-69
2023/01/07 03:33:01;;;;;;;14.20;8.43;;;;;;;-5.99;62.82;101178.58;1681013;84;22006;-68
2023/01/07 03:35:30;;;;;;;9.75;5.92;;;;;;;-5.97;62.85;101169.18;1696484;84;21019;-68
2023/01/07 03:37:58;;;;;;;10.28;6.00;;;;;;;-5.93;62.93;101177.31;1682680;84;20987;-68
2023/01/07 03:40:24;;;;;;;10.40;6.65;;;;;;;-5.93;63.00;101174.73;1679212;84;21004;-68
2023/01/07 03:42:53;;;;;;;8.40;5.00;;;;;;;-5.92;63.06;101176.45;1680064;82;20992;-68
2023/01/07 03:45:25;;;;;;;7.70;4.50;;;;;;;-5.91;63.11;101179.45;1679244;84;21982;-68
2023/01/07 03:47:56;;;;;;;7.87;5.00;;;;;;;-5.89;63.15;101177.70;1682693;84;21035;-68
2023/01/07 03:50:25;;;;;;;8.43;5.53;;;;;;;-5.88;62.97;101179.44;1707023;84;20976;-68
2023/01/07 03:52:52;;;;;;;8.68;6.47;;;;;;;-5.94;62.71;101183.31;1692937;82;21023;-68
2023/01/07 03:55:20;;;;;;;9.55;5.05;;;;;;;-5.97;62.72;101183.33;1679469;84;21026;-68
2023/01/07 03:57:49;;;;;;;5.92;3.95;;;;;;;-5.98;62.72;101180.72;1692016;84;21928;-68
2023/01/07 04:00:16;;;;;;;6.20;3.92;;;;;;;-5.98;62.59;101182.01;1659355;85;20992;-69
2023/01/07 04:02:45;;;;;;;6.40;3.33;;;;;;;-6.00;62.63;101182.02;1692950;84;21011;-68
2023/01/07 04:05:13;;;;;;;5.05;3.50;;;;;;;-5.98;62.74;101181.61;1688134;84;21047;-68
2023/01/07 04:07:41;;;;;;;5.95;3.83;;;;;;;-5.97;62.73;101186.33;1705480;84;21011;-68
2023/01/07 04:10:09;;;;;;;8.40;5.08;;;;;;;-5.96;62.72;101187.61;1692531;84;21930;-68
2023/01/07 04:12:36;;;;;;;7.90;4.20;;;;;;;-5.93;62.71;101195.31;1684958;82;20996;-68
2023/01/07 04:15:04;;;;;;;6.95;4.12;;;;;;;-5.91;62.64;101200.46;1679776;84;20976;-69
2023/01/07 04:17:31;;;;;;;6.20;3.65;;;;;;;-5.91;62.57;101196.17;1696138;82;21095;-68
2023/01/07 04:19:59;;;;;;;6.37;3.77;;;;;;;-5.91;62.50;101203.89;1684528;84;21114;-68
2023/01/07 04:22:29;;;;;;;7.03;3.95;;;;;;;-5.94;62.35;101205.19;1679804;83;21110;-68
2023/01/07 04:24:57;;;;;;;5.28;3.77;;;;;;;-5.95;62.31;101206.04;1678275;82;21575;-69
2023/01/07 04:27:23;;;;;;;6.30;4.00;;;;;;;-5.93;62.25;101207.33;1699985;84;21028;-69
2023/01/07 04:29:52;;;;;;;6.50;4.00;;;;;;;-5.93;62.14;101208.61;1702988;84;21011;-68
2023/01/07 04:32:19;;;;;;;5.87;3.98;;;;;;;-5.95;62.21;101216.33;1683610;82;21537;-68
2023/01/07 04:34:46;;;;;;;7.03;4.15;;;;;;;-5.93;62.32;101209.89;1687187;84;21989;-71
2023/01/07 04:37:13;;;;;;;6.58;4.03;;;;;;;-5.92;62.24;101211.17;1693607;82;21066;-69
2023/01/07 04:39:40;;;;;;;6.20;3.30;;;;;;;-5.91;62.24;101212.89;1694712;82;21028;-67
2023/01/07 04:42:07;;;;;;;5.37;3.72;;;;;;;-5.90;62.25;101212.00;1677771;84;21406;-68
2023/01/07 04:44:34;;;;;;;6.05;3.80;;;;;;;-5.88;62.28;101214.59;1683119;84;21552;-69
2023/01/07 04:47:00;;;;;;;4.97;3.55;;;;;;;-5.87;62.22;101218.89;1708108;82;21951;-69
2023/01/07 04:49:27;;;;;;;5.05;3.35;;;;;;;-5.87;62.14;101217.17;1695604;82;20972;-68
2023/01/07 04:51:54;;;;;;;6.28;3.42;;;;;;;-5.86;62.21;101214.17;1704553;84;20976;-68
2023/01/07 04:54:20;;;;;;;5.67;3.47;;;;;;;-5.85;62.02;101222.31;1716112;82;21048;-68
2023/01/07 04:56:48;;;;;;;5.75;3.60;;;;;;;-5.87;61.78;101224.03;1720474;83;20956;-68
2023/01/07 04:59:15;;;;;;;4.87;3.27;;;;;;;-5.92;61.67;101221.89;1710258;83;21823;-69
2023/01/07 05:01:42;;;;;;;5.50;3.25;;;;;;;-5.94;61.76;101224.90;1705416;82;20923;-68
2023/01/07 05:04:10;;;;;;;4.53;3.27;;;;;;;-5.95;61.79;101229.19;1686117;82;21034;-68
2023/01/07 05:06:37;;;;;;;8.43;4.90;;;;;;;-5.95;61.96;101228.33;1682533;84;21063;-68
2023/01/07 05:09:03;;;;;;;5.53;3.80;;;;;;;-5.92;62.15;101241.19;1705467;82;21008;-66
2023/01/07 05:11:33;;;;;;;6.75;4.53;;;;;;;-5.92;62.11;101239.91;1681819;84;21013;-69
2023/01/07 05:14:00;;;;;;;7.50;4.22;;;;;;;-5.94;62.13;101239.91;1699934;82;21177;-68
2023/01/07 05:16:28;;;;;;;7.37;4.78;;;;;;;-5.95;61.93;101239.48;1692993;82;21555;-67
2023/01/07 05:18:56;;;;;;;5.95;4.08;;;;;;;-5.98;61.89;101242.05;1679063;83;21890;-67
2023/01/07 05:21:24;;;;;;;6.87;4.25;;;;;;;-5.97;61.89;101246.34;1686374;83;21064;-67
2023/01/07 05:23:51;;;;;;;6.12;4.12;;;;;;;-5.95;61.96;101253.63;1692298;83;21828;-68
2023/01/07 05:26:18;;;;;;;6.17;3.72;;;;;;;-5.92;62.11;101258.77;1692828;84;20976;-67
2023/01/07 05:28:45;;;;;;;6.05;3.70;;;;;;;-5.92;61.93;101261.34;1680089;84;20971;-68
2023/01/07 05:31:12;;;;;;;6.60;4.10;;;;;;;-5.92;62.00;101260.05;1666979;83;21016;-68
2023/01/07 05:33:39;;;;;;;5.87;3.70;;;;;;;-5.90;62.11;101257.02;1683116;84;20971;-68
2023/01/07 05:36:06;;;;;;;5.92;3.80;;;;;;;-5.87;62.09;101267.33;1682961;85;21992;-68
2023/01/07 05:38:33;;;;;;;5.55;3.55;;;;;;;-5.87;62.06;101263.47;1695539;83;20976;-68
2023/01/07 05:41:00;;;;;;;5.67;4.05;;;;;;;-5.87;61.96;101264.76;1690608;83;21011;-68
2023/01/07 05:43:27;;;;;;;6.12;3.95;;;;;;;-5.86;61.91;101273.34;1681290;85;21023;-66
2023/01/07 05:45:54;;;;;;;6.17;4.10;;;;;;;-5.87;61.91;101275.48;1693591;83;20972;-68
2023/01/07 05:48:21;;;;;;;7.65;4.08;;;;;;;-5.86;62.06;101272.91;1675782;84;22569;-67
2023/01/07 05:50:48;;;;;;;8.25;4.70;;;;;;;-5.85;62.14;101273.33;1673027;83;21550;-68
2023/01/07 05:53:14;;;;;;;6.45;3.95;;;;;;;-5.82;62.29;101275.05;1682930;84;20996;-67
2023/01/07 05:55:41;;;;;;;7.33;4.40;;;;;;;-5.80;62.26;101279.33;1698515;84;21070;-68
2023/01/07 05:58:07;;;;;;;6.20;4.00;;;;;;;-5.80;62.20;101282.33;1677412;84;20975;-68
2023/01/07 06:00:35;;;;;;;7.53;3.92;;;;;;;-5.79;62.18;101281.47;1682328;83;21943;-67
2023/01/07 06:03:04;;;;;;;7.22;4.08;;;;;;;-5.78;62.17;101287.08;1695562;83;21070;-69
2023/01/07 06:05:31;;;;;;;8.33;5.28;;;;;;;-5.78;62.19;101285.80;1683633;84;21079;-67
2023/01/07 06:07:58;;;;;;;5.83;3.92;;;;;;;-5.74;62.19;101285.36;1678711;83;20968;-68
2023/01/07 06:10:24;;;;;;;4.95;3.67;;;;;;;-5.72;62.19;101293.93;1674422;84;21044;-68
2023/01/07 06:12:52;;;;;;;7.10;3.92;;;;;;;-5.72;62.29;101299.08;1669921;84;21934;-68
2023/01/07 06:15:18;;;;;;;7.58;4.30;;;;;;;-5.73;62.35;101300.80;1673227;85;21055;-68
2023/01/07 06:17:45;;;;;;;7.97;4.62;;;;;;;-5.73;62.41;101309.80;1679411;83;21024;-68
2023/01/07 06:20:13;;;;;;;6.90;3.90;;;;;;;-5.74;62.38;101316.23;1690820;82;21015;-69
2023/01/07 06:22:42;;;;;;;5.95;3.83;;;;;;;-5.74;62.52;101311.09;1701045;82;21019;-68
2023/01/07 06:25:10;;;;;;;6.65;4.08;;;;;;;-5.77;62.41;101314.09;1674297;84;22603;-67
2023/01/07 06:27:39;;;;;;;6.97;3.85;;;;;;;-5.78;62.37;101320.09;1697742;84;20965;-68
2023/01/07 06:30:08;;;;;;;8.38;3.90;;;;;;;-5.78;62.38;101325.24;1694462;82;21037;-69
2023/01/07 06:32:42;;;;;;;8.50;4.53;;;;;;;-5.78;62.26;101329.10;1702014;84;20983;-67
2023/01/07 06:35:10;;;;;;;6.28;4.20;;;;;;;-5.78;62.38;101336.82;1688166;84;21058;-68
2023/01/07 06:37:37;;;;;;;5.60;3.45;;;;;;;-5.78;62.37;101340.68;1663769;84;21995;-67
2023/01/07 06:40:05;;;;;;;5.65;3.75;;;;;;;-5.77;62.41;101341.11;1701905;84;20956;-68
2023/01/07 06:42:32;;;;;;;8.20;4.20;;;;;;;-5.76;62.49;101337.67;1694890;82;21521;-66
2023/01/07 06:44:59;;;;;;;7.58;4.17;;;;;;;-5.76;62.47;101341.53;1696017;82;21063;-67
2023/01/07 06:47:25;;;;;;;6.03;3.70;;;;;;;-5.73;62.43;101343.68;1684271;82;20971;-68
2023/01/07 06:49:52;;;;;;;6.55;3.83;;;;;;;-5.71;62.48;101343.25;1681808;82;21952;-68
2023/01/07 06:52:18;;;;;;;8.63;4.28;;;;;;;-5.71;62.47;101350.54;1692107;84;21079;-67
2023/01/07 06:54:45;;;;;;;6.92;4.12;;;;;;;-5.71;62.50;101352.25;1681969;84;21035;-68
2023/01/07 06:57:12;;;;;;;5.95;4.08;;;;;;;-5.69;62.55;101347.97;1699623;82;21031;-69
2023/01/07 06:59:38;;;;;;;6.80;4.00;;;;;;;-5.69;62.62;101354.39;1695444;82;21035;-68
2023/01/07 07:02:05;;;;;;;6.78;4.33;;;;;;;-5.69;62.60;101359.15;1692555;84;22833;-69
2023/01/07 07:04:31;;;;;;;8.18;4.53;;;;;;;-5.70;62.68;101357.83;1690461;84;21040;-68
2023/01/07 07:06:58;;;;;;;6.15;4.20;;;;;;;-5.69;62.70;101358.26;1685252;83;21079;-67
2023/01/07 07:09:25;;;;;;;7.17;4.50;;;;;;;-5.70;62.76;101367.69;1689083;83;21044;-68
2023/01/07 07:11:52;;;;;;;6.78;4.60;;;;;;;-5.69;62.96;101371.12;1666318;84;21506;-67
2023/01/07 07:14:18;;;;;;;7.17;4.50;;;;;;;-5.70;62.93;101371.55;1681189;82;22094;-68
2023/01/07 07:16:48;;;;;;;6.97;3.95;;;;;;;-5.72;62.95;101368.13;1683824;82;21495;-69
2023/01/07 07:19:14;;;;;;;6.42;3.98;;;;;;;-5.71;62.91;101367.27;1669726;83;21589;-68
2023/01/07 07:21:41;;;;;;;6.55;4.05;;;;;;;-5.71;62.93;101363.83;1679353;84;21040;-68
2023/01/07 07:24:08;;;;;;;7.28;4.28;;;;;;;-5.69;63.01;101363.41;1702998;84;21087;-68
2023/01/07 07:26:35;;;;;;;6.50;3.85;;;;;;;-5.68;62.96;101367.72;1668974;84;21839;-67
2023/01/07 07:29:01;;;;;;;8.48;4.42;;;;;;;-5.70;62.99;101368.13;1668403;84;21013;-68
2023/01/07 07:31:28;;;;;;;5.85;4.08;;;;;;;-5.67;63.04;101378.45;1675268;84;21027;-68
2023/01/07 07:33:54;;;;;;;6.75;4.22;;;;;;;-5.67;63.13;101377.16;1707229;83;21059;-67
2023/01/07 07:36:22;;;;;;;5.65;3.65;;;;;;;-5.66;63.05;101382.30;1705462;83;21075;-68
2023/01/07 07:38:48;;;;;;;7.15;4.03;;;;;;;-5.65;63.05;101377.59;1684151;83;21935;-68
2023/01/07 07:41:16;;;;;;;7.83;4.15;;;;;;;-5.61;63.14;101373.30;1658581;84;21039;-68
2023/01/07 07:43:45;;;;;;;6.17;4.08;;;;;;;-5.59;63.17;101376.33;1696519;82;21134;-68
2023/01/07 07:46:11;;;;;;;8.13;4.60;;;;;;;-5.59;63.02;101378.91;1677794;84;21048;-68
2023/01/07 07:48:38;;;;;;;7.10;4.20;;;;;;;-5.62;62.95;101378.02;1681077;84;21122;-67
2023/01/07 07:51:05;;;;;;;7.40;4.37;;;;;;;-5.63;62.98;101384.88;1699156;83;22929;-68
2023/01/07 07:53:31;;;;;;;7.12;4.22;;;;;;;-5.64;62.92;101384.88;1681599;83;21060;-68
2023/01/07 07:55:58;;;;;;;6.60;4.40;;;;;;;-5.65;62.85;101390.89;1679262;84;20987;-68
2023/01/07 07:58:25;;;;;;;8.03;4.30;;;;;;;-5.67;62.83;101387.02;1686518;83;21029;-68
2023/01/07 08:00:52;;;;;;;8.50;4.30;;;;;;;-5.66;62.87;101392.59;1682056;83;21023;-68
2023/01/07 08:03:19;;;;;;;6.72;3.98;;;;;;;-5.65;62.82;101396.03;1690684;83;21552;-68
2023/01/07 08:05:45;;;;;;;5.80;3.65;;;;;;;-5.62;62.88;101400.75;1688125;83;21494;-68
2023/01/07 08:08:13;;;;;;;6.58;4.00;;;;;;;-5.61;62.82;101403.75;1691028;83;21015;-68
2023/01/07 08:10:40;;;;;;;6.45;4.22;;;;;;;-5.56;62.85;101407.64;1683778;83;21079;-69
2023/01/07 08:13:08;;;;;;;4.60;3.33;;;;;;;-5.52;62.85;101412.79;1695265;83;21092;-69
2023/01/07 08:15:36;;;;;;;8.45;4.97;;;;;;;-5.49;62.86;101409.39;1696636;83;22084;-68
2023/01/07 08:18:08;;;;;;;6.95;4.35;;;;;;;-5.48;62.77;101416.25;1683322;83;21047;-67
2023/01/07 08:20:35;;;;;;;6.12;3.55;;;;;;;-5.48;62.62;101409.39;1684025;84;21008;-68
2023/01/07 08:23:02;;;;;;;6.22;4.17;;;;;;;-5.49;62.50;101410.67;1673942;83;21087;-69
2023/01/07 08:25:30;;;;;;;5.90;3.80;;;;;;;-5.52;62.51;101412.79;1673797;84;21079;-69
2023/01/07 08:27:57;;;;;;;6.70;3.80;;;;;;;-5.53;62.46;101413.65;1675446;84;21779;-67
2023/01/07 08:30:25;;;;;;;7.17;3.90;;;;;;;-5.55;62.31;101419.23;1675039;84;21435;-68
2023/01/07 08:32:53;;;;;;;7.62;4.42;;;;;;;-5.60;62.29;101417.48;1657235;85;21126;-68
2023/01/07 08:35:20;;;;;;;7.35;4.62;;;;;;;-5.63;62.44;101420.91;1675686;84;21566;-70
2023/01/07 08:37:46;;;;;;;7.70;4.92;;;;;;;-5.66;62.55;101419.63;1698602;83;21079;-70
2023/01/07 08:40:13;;;;;;;7.33;4.25;;;;;;;-5.68;62.83;101424.34;1694822;82;22023;-69
2023/01/07 08:42:41;;;;;;;7.33;4.80;;;;;;;-5.69;63.06;101427.34;1696922;82;21015;-69
2023/01/07 08:45:10;;;;;;;8.70;4.62;;;;;;;-5.70;63.03;101427.30;1702065;82;20992;-69
2023/01/07 08:47:38;;;;;;;7.75;4.95;;;;;;;-5.73;63.10;101425.59;1704800;83;20986;-68
2023/01/07 08:50:06;;;;;;;10.20;4.70;;;;;;;-5.73;63.23;101417.88;1698784;83;21158;-69
2023/01/07 08:52:33;;;;;;;8.73;4.78;;;;;;;-5.72;63.19;101419.59;1698747;83;22565;-68
2023/01/07 08:55:00;;;;;;;7.42;4.47;;;;;;;-5.70;63.22;101420.45;1673028;84;21011;-68
2023/01/07 08:57:26;;;;;;;7.67;4.70;;;;;;;-5.66;63.29;101422.20;1680278;83;21027;-70
2023/01/07 08:59:53;;;;;;;7.30;4.45;;;;;;;-5.62;63.37;101425.20;1682946;83;21108;-68
2023/01/07 09:02:19;;;;;;;7.53;4.30;;;;;;;-5.57;63.41;101425.23;1691171;83;21139;-68
2023/01/07 09:04:46;;;;;;;8.05;4.85;;;;;;;-5.52;63.35;101428.23;1713222;83;21835;-68
2023/01/07 09:07:12;;;;;;;8.93;4.60;;;;;;;-5.51;63.29;101425.23;1692100;83;21003;-68
2023/01/07 09:09:44;;;;;;;8.10;4.55;;;;;;;-5.52;63.14;101424.80;1708374;83;21070;-69
2023/01/07 09:12:10;;;;;;;7.00;3.75;;;;;;;-5.54;63.17;101422.23;1695166;83;22203;-68
2023/01/07 09:14:37;;;;;;;7.92;4.42;;;;;;;-5.53;63.16;101423.09;1711723;83;21644;-69
2023/01/07 09:17:04;;;;;;;7.28;4.65;;;;;;;-5.53;63.12;101423.09;1696434;83;21995;-69
2023/01/07 09:19:31;;;;;;;8.25;4.55;;;;;;;-5.55;62.92;101415.80;1689375;83;21031;-68
2023/01/07 09:21:59;;;;;;;7.42;4.95;;;;;;;-5.58;62.97;101410.65;1693243;82;21402;-69
2023/01/07 09:24:26;;;;;;;7.37;4.23;;;;;;;-5.56;63.00;101417.94;1698807;82;21137;-68
2023/01/07 09:26:55;;;;;;;8.23;4.42;;;;;;;-5.50;63.19;101416.25;1698373;82;21486;-68
2023/01/07 09:29:36;;;;;;;8.70;4.53;;;;;;;-5.38;63.27;101414.13;1717517;81;22549;-68
2023/01/07 09:32:07;;;;;;;6.10;4.17;;;;;;;-5.27;63.17;101420.16;1694405;82;21121;-69
2023/01/07 09:34:33;;;;;;;6.80;4.53;;;;;;;-5.17;63.09;101417.60;1704862;83;20987;-70
2023/01/07 09:37:00;;;;;;;7.35;4.67;;;;;;;-5.11;62.76;101420.20;1716662;82;21075;-70
2023/01/07 09:39:51;;;;;;;7.60;4.30;;;;;;;-5.08;62.42;101422.77;1705214;83;21078;-70
2023/01/07 09:42:52;;;;;;;7.12;4.62;;;;;;;-5.08;62.08;101421.48;1716843;82;21000;-70
2023/01/07 09:45:24;;;;;;;;;;;;;;;-5.06;62.14;101424.91;1718048;83;20966;-71
2023/01/07 09:47:54;;;;;;;6.60;4.12;;;;;;;-5.02;62.01;101424.05;1692985;84;20159;-71
2023/01/07 09:50:53;;;;;;;8.65;4.65;;;;;;;-5.01;61.68;101421.93;1687464;84;21084;-71
2023/01/07 09:53:35;;;;;;;6.65;3.90;;;;;;;-5.03;61.39;101424.91;1687104;84;21090;-70
2023/01/07 09:56:05;;;;;;;5.95;3.87;;;;;;;-5.03;61.21;101421.05;1658827;84;22596;-71
2023/01/07 09:58:31;;;;;;;7.97;4.78;;;;;;;-5.08;60.79;101420.20;1689741;83;21044;-70
2023/01/07 10:01:23;;;;;;;9.75;4.58;;;;;;;-5.12;60.65;101421.03;1684302;84;21513;-72
2023/01/07 10:04:17;;;;;;;7.47;4.67;;;;;;;-5.10;60.82;101412.91;1692252;84;21058;-69
2023/01/07 10:06:57;;;;;;;7.58;4.28;;;;;;;-4.99;61.01;101413.77;1709364;82;21031;-69
2023/01/07 10:09:39;;;;;;;7.90;4.60;;;;;;;-4.87;60.98;101407.75;1689169;82;22547;-70
2023/01/07 10:12:23;;;;;;;7.85;4.60;;;;;;;-4.80;60.77;101409.48;1694358;82;21451;-70
2023/01/07 10:15:24;;;;;;;8.03;5.00;;;;;;;-4.76;60.37;101409.90;1694716;82;21102;-70
2023/01/07 10:18:04;;;;;;;7.97;4.30;;;;;;;-4.78;60.15;101411.19;1705139;82;21102;-70
2023/01/07 10:20:55;;;;;;;7.25;4.03;;;;;;;-4.79;60.13;101408.19;1695818;82;21008;-69
2023/01/07 10:23:27;;;;;;;7.25;4.42;;;;;;;-4.75;59.92;101412.91;1691811;82;22678;-71
2023/01/07 10:25:55;;;;;;;7.20;4.08;;;;;;;-4.75;59.72;101410.33;1701703;84;20912;-70
2023/01/07 10:28:35;;;;;;;6.58;4.15;;;;;;;-4.73;59.71;101412.47;1691162;82;21031;-72
2023/01/07 10:31:02;;;;;;;6.83;4.15;;;;;;;-4.71;59.55;101415.92;1697869;82;21532;-73
2023/01/07 10:33:31;;;;;;;6.97;4.53;;;;;;;-4.71;59.26;101409.05;1694909;82;21592;-73
2023/01/07 10:36:37;;;;;;;8.43;4.37;;;;;;;-4.72;59.02;101409.91;1693335;82;22627;-71
2023/01/07 10:39:33;;;;;;;6.55;4.35;;;;;;;-4.74;58.97;101405.16;1690655;82;21024;-73
2023/01/07 10:42:08;;;;;;;6.37;4.00;;;;;;;-4.69;58.87;101399.59;1690517;82;21430;-73
2023/01/07 10:45:14;;;;;;;6.62;3.83;;;;;;;-4.64;58.71;101395.28;1695554;83;21045;-74
2023/01/07 10:47:55;;;;;;;7.08;4.10;;;;;;;-4.60;58.68;101402.59;1693696;82;21031;-73
2023/01/07 10:50:43;;;;;;;7.08;3.92;;;;;;;-4.58;58.54;101394.86;1644131;84;21514;-72
2023/01/07 10:53:15;;;;;;;8.20;4.30;;;;;;;-4.56;58.55;101399.58;1693063;82;21801;-75
2023/01/07 10:56:20;;;;;;;6.30;4.17;;;;;;;-4.55;58.20;101396.13;1676461;83;21090;-71
2023/01/07 10:58:47;;;;;;;7.10;4.40;;;;;;;-4.55;58.08;101387.97;1678726;82;21623;-75
2023/01/07 11:01:30;;;;;;;7.42;4.35;;;;;;;-4.64;57.42;101382.39;1683185;82;20979;-71
2023/01/07 11:03:58;;;;;;;6.17;3.92;;;;;;;-4.75;57.53;101392.28;1705500;82;21961;-74
2023/01/07 11:06:39;;;;;;;6.28;4.05;;;;;;;-4.80;57.42;101398.74;1684999;82;21078;-71
2023/01/07 11:09:11;;;;;;;6.90;4.03;;;;;;;-4.86;57.40;101392.72;1698121;83;21113;-74
2023/01/07 11:11:38;;;;;;;7.08;4.40;;;;;;;-4.86;57.80;101397.44;1691637;82;21495;-74
2023/01/07 11:14:22;;;;;;;7.65;4.62;;;;;;;-4.82;57.69;101391.45;1691004;82;21154;-73
2023/01/07 11:16:53;;;;;;;;;;;;;;;-4.77;57.99;101387.56;1697356;83;22621;-76
2023/01/07 11:19:19;;;;;;;8.50;4.25;;;;;;;-4.72;58.03;101395.73;1695567;83;20280;-76
2023/01/07 11:21:51;;;;;;;6.75;4.30;;;;;;;-4.70;58.07;101400.45;1675598;84;21407;-74
2023/01/07 11:24:34;;;;;;;6.97;3.92;;;;;;;-4.67;58.19;101398.30;1660221;84;21099;-73
2023/01/07 11:27:05;;;;;;;7.58;3.85;;;;;;;-4.65;58.18;101400.00;1678397;84;21118;-73
2023/01/07 11:29:40;;;;;;;6.03;3.65;;;;;;;-4.69;57.90;101406.47;1682944;84;21899;-73
2023/01/07 11:32:27;;;;;;;7.60;3.85;;;;;;;-4.70;58.04;101403.47;1686585;83;21109;-75
2023/01/07 11:35:05;;;;;;;8.78;4.12;;;;;;;-4.70;57.93;101407.33;1681261;84;21078;-74
2023/01/07 11:37:42;;;;;;;6.62;4.12;;;;;;;-4.68;58.00;101403.03;1676375;84;21035;-73
2023/01/07 11:40:17;;;;;;;5.90;3.70;;;;;;;-4.67;58.05;101405.59;1667721;84;21447;-72
2023/01/07 11:43:04;;;;;;;6.20;3.47;;;;;;;-4.67;58.17;101405.59;1669722;84;21969;-72
2023/01/07 11:45:53;;;;;;;6.92;4.10;;;;;;;-4.64;58.15;101398.28;1686527;83;21019;-72
2023/01/07 11:48:36;;;;;;;6.70;4.00;;;;;;;-4.62;58.22;101396.59;1703826;83;21129;-71
2023/01/07 11:51:09;;;;;;;8.88;4.45;;;;;;;-4.58;58.23;101394.86;1690289;83;20952;-69
2023/01/07 11:53:51;;;;;;;8.20;4.50;;;;;;;-4.56;58.33;101399.58;1692601;83;21019;-67